sensor_id;sensor_type;location;lat;lon;timestamp;P1;durP1;ratioP1;P2;durP2;ratioP2
43650;SDS011;29247;50.944;5.382;2022-12-13T00:02:11;30.25;;;12.35;;
43650;SDS011;29247;50.944;5.382;2022-12-13T00:04:36;28.15;;;12.35;;
43650;SDS011;29247;50.944;5.382;2022-12-13T00:07:02;27.13;;;11.63;;
43650;SDS011;29247;50.944;5.382;2022-12-13T00:09:28;27.45;;;12.57;;
43650;SDS011;29247;50.944;5.382;2022-12-13T00:11:55;21.00;;;11.45;;
43650;SDS011;29247;50.944;5.382;2022-12-13T00:14:23;29.23;;;12.52;;
43650;SDS011;29247;50.944;5.382;2022-12-13T00:16:49;24.52;;;12.48;;
43650;SDS011;29247;50.944;5.382;2022-12-13T00:19:15;27.83;;;12.20;;
43650;SDS011;29247;50.944;5.382;2022-12-13T00:21:47;29.23;;;13.93;;
43650;SDS011;29247;50.944;5.382;2022-12-13T00:24:12;27.55;;;11.85;;
43650;SDS011;29247;50.944;5.382;2022-12-13T00:26:38;23.52;;;11.98;;
43650;SDS011;29247;50.944;5.382;2022-12-13T00:29:04;29.48;;;11.80;;
43650;SDS011;29247;50.944;5.382;2022-12-13T00:31:31;30.95;;;12.63;;
43650;SDS011;29247;50.944;5.382;2022-12-13T00:34:00;28.85;;;11.82;;
43650;SDS011;29247;50.944;5.382;2022-12-13T00:36:30;27.65;;;12.27;;
43650;SDS011;29247;50.944;5.382;2022-12-13T00:38:58;27.60;;;12.43;;
43650;SDS011;29247;50.944;5.382;2022-12-13T00:41:28;26.95;;;11.70;;
43650;SDS011;29247;50.944;5.382;2022-12-13T00:43:59;27.60;;;11.15;;
43650;SDS011;29247;50.944;5.382;2022-12-13T00:46:29;31.17;;;12.27;;
43650;SDS011;29247;50.944;5.382;2022-12-13T00:48:56;24.67;;;11.00;;
43650;SDS011;29247;50.944;5.382;2022-12-13T00:51:28;29.70;;;11.93;;
43650;SDS011;29247;50.944;5.382;2022-12-13T00:53:55;22.88;;;10.75;;
43650;SDS011;29247;50.944;5.382;2022-12-13T00:56:22;25.13;;;11.85;;
43650;SDS011;29247;50.944;5.382;2022-12-13T01:01:22;19.63;;;9.70;;
43650;SDS011;29247;50.944;5.382;2022-12-13T01:03:54;21.05;;;11.20;;
43650;SDS011;29247;50.944;5.382;2022-12-13T01:06:28;25.40;;;12.85;;
43650;SDS011;29247;50.944;5.382;2022-12-13T01:08:58;22.52;;;11.27;;
43650;SDS011;29247;50.944;5.382;2022-12-13T01:11:24;33.72;;;11.38;;
43650;SDS011;29247;50.944;5.382;2022-12-13T01:13:53;30.15;;;12.25;;
43650;SDS011;29247;50.944;5.382;2022-12-13T01:16:21;31.55;;;12.43;;
43650;SDS011;29247;50.944;5.382;2022-12-13T01:18:49;23.80;;;11.20;;
43650;SDS011;29247;50.944;5.382;2022-12-13T01:21:16;25.55;;;11.60;;
43650;SDS011;29247;50.944;5.382;2022-12-13T01:23:43;28.50;;;12.93;;
43650;SDS011;29247;50.944;5.382;2022-12-13T01:26:13;29.42;;;11.98;;
43650;SDS011;29247;50.944;5.382;2022-12-13T01:28:46;31.10;;;12.10;;
43650;SDS011;29247;50.944;5.382;2022-12-13T01:31:13;29.80;;;12.80;;
43650;SDS011;29247;50.944;5.382;2022-12-13T01:33:42;14.38;;;9.18;;
43650;SDS011;29247;50.944;5.382;2022-12-13T01:36:14;28.63;;;12.40;;
43650;SDS011;29247;50.944;5.382;2022-12-13T01:38:46;26.65;;;12.55;;
43650;SDS011;29247;50.944;5.382;2022-12-13T01:41:12;30.35;;;12.60;;
43650;SDS011;29247;50.944;5.382;2022-12-13T01:46:11;28.45;;;13.18;;
43650;SDS011;29247;50.944;5.382;2022-12-13T01:49:01;29.17;;;12.82;;
43650;SDS011;29247;50.944;5.382;2022-12-13T01:51:35;19.85;;;11.68;;
43650;SDS011;29247;50.944;5.382;2022-12-13T01:54:10;32.97;;;12.98;;
43650;SDS011;29247;50.944;5.382;2022-12-13T01:56:46;23.75;;;10.40;;
43650;SDS011;29247;50.944;5.382;2022-12-13T01:59:14;23.33;;;11.18;;
43650;SDS011;29247;50.944;5.382;2022-12-13T02:01:43;28.25;;;12.15;;
43650;SDS011;29247;50.944;5.382;2022-12-13T02:04:11;27.88;;;11.68;;
43650;SDS011;29247;50.944;5.382;2022-12-13T02:06:47;21.50;;;10.77;;
43650;SDS011;29247;50.944;5.382;2022-12-13T02:09:16;27.02;;;11.60;;
43650;SDS011;29247;50.944;5.382;2022-12-13T02:11:43;28.55;;;12.63;;
43650;SDS011;29247;50.944;5.382;2022-12-13T02:14:12;30.80;;;12.88;;
43650;SDS011;29247;50.944;5.382;2022-12-13T02:16:53;23.35;;;11.85;;
43650;SDS011;29247;50.944;5.382;2022-12-13T02:19:33;26.00;;;11.10;;
43650;SDS011;29247;50.944;5.382;2022-12-13T02:22:31;21.40;;;10.20;;
43650;SDS011;29247;50.944;5.382;2022-12-13T02:36:36;26.33;;;11.00;;
43650;SDS011;29247;50.944;5.382;2022-12-13T02:39:10;20.88;;;9.80;;
43650;SDS011;29247;50.944;5.382;2022-12-13T02:46:57;21.17;;;9.57;;
43650;SDS011;29247;50.944;5.382;2022-12-13T02:49:43;21.50;;;9.60;;
43650;SDS011;29247;50.944;5.382;2022-12-13T02:52:11;25.33;;;11.50;;
43650;SDS011;29247;50.944;5.382;2022-12-13T02:54:39;22.05;;;9.73;;
43650;SDS011;29247;50.944;5.382;2022-12-13T02:57:25;20.63;;;9.70;;
43650;SDS011;29247;50.944;5.382;2022-12-13T03:00:02;20.52;;;9.20;;
43650;SDS011;29247;50.944;5.382;2022-12-13T03:05:10;20.17;;;8.75;;
43650;SDS011;29247;50.944;5.382;2022-12-13T03:08:23;17.23;;;8.75;;
43650;SDS011;29247;50.944;5.382;2022-12-13T03:11:02;16.77;;;9.00;;
43650;SDS011;29247;50.944;5.382;2022-12-13T03:16:23;19.42;;;8.95;;
43650;SDS011;29247;50.944;5.382;2022-12-13T03:18:59;15.85;;;8.57;;
43650;SDS011;29247;50.944;5.382;2022-12-13T03:21:28;22.73;;;8.90;;
43650;SDS011;29247;50.944;5.382;2022-12-13T03:24:01;21.88;;;9.68;;
43650;SDS011;29247;50.944;5.382;2022-12-13T03:26:27;17.48;;;8.43;;
43650;SDS011;29247;50.944;5.382;2022-12-13T03:28:53;15.82;;;8.25;;
43650;SDS011;29247;50.944;5.382;2022-12-13T03:31:20;16.73;;;8.27;;
43650;SDS011;29247;50.944;5.382;2022-12-13T03:33:48;19.23;;;8.70;;
43650;SDS011;29247;50.944;5.382;2022-12-13T03:36:13;20.17;;;8.48;;
43650;SDS011;29247;50.944;5.382;2022-12-13T03:38:43;17.42;;;8.32;;
43650;SDS011;29247;50.944;5.382;2022-12-13T03:41:15;21.10;;;9.48;;
43650;SDS011;29247;50.944;5.382;2022-12-13T03:43:43;18.48;;;9.07;;
43650;SDS011;29247;50.944;5.382;2022-12-13T03:46:10;18.75;;;9.63;;
43650;SDS011;29247;50.944;5.382;2022-12-13T03:48:36;23.20;;;10.15;;
43650;SDS011;29247;50.944;5.382;2022-12-13T03:51:04;16.00;;;8.10;;
43650;SDS011;29247;50.944;5.382;2022-12-13T03:53:31;15.18;;;8.43;;
43650;SDS011;29247;50.944;5.382;2022-12-13T03:55:57;19.60;;;10.82;;
43650;SDS011;29247;50.944;5.382;2022-12-13T03:58:25;18.27;;;9.35;;
43650;SDS011;29247;50.944;5.382;2022-12-13T04:00:50;16.23;;;7.85;;
43650;SDS011;29247;50.944;5.382;2022-12-13T04:03:16;17.90;;;8.60;;
43650;SDS011;29247;50.944;5.382;2022-12-13T04:05:44;15.45;;;8.18;;
43650;SDS011;29247;50.944;5.382;2022-12-13T04:08:10;20.65;;;8.52;;
43650;SDS011;29247;50.944;5.382;2022-12-13T04:10:37;18.48;;;8.90;;
43650;SDS011;29247;50.944;5.382;2022-12-13T04:13:05;16.70;;;8.90;;
43650;SDS011;29247;50.944;5.382;2022-12-13T04:15:50;18.42;;;8.75;;
43650;SDS011;29247;50.944;5.382;2022-12-13T04:18:16;17.02;;;7.93;;
43650;SDS011;29247;50.944;5.382;2022-12-13T04:20:45;18.40;;;7.13;;
43650;SDS011;29247;50.944;5.382;2022-12-13T04:23:11;19.90;;;7.35;;
43650;SDS011;29247;50.944;5.382;2022-12-13T04:25:37;22.33;;;8.88;;
43650;SDS011;29247;50.944;5.382;2022-12-13T04:28:06;16.05;;;7.78;;
43650;SDS011;29247;50.944;5.382;2022-12-13T04:30:33;21.20;;;9.40;;
43650;SDS011;29247;50.944;5.382;2022-12-13T04:32:58;17.15;;;8.15;;
43650;SDS011;29247;50.944;5.382;2022-12-13T04:35:24;19.02;;;7.93;;
43650;SDS011;29247;50.944;5.382;2022-12-13T04:37:50;21.17;;;8.82;;
43650;SDS011;29247;50.944;5.382;2022-12-13T04:40:16;17.40;;;7.45;;
43650;SDS011;29247;50.944;5.382;2022-12-13T04:42:44;15.80;;;7.50;;
43650;SDS011;29247;50.944;5.382;2022-12-13T04:45:16;17.33;;;7.95;;
43650;SDS011;29247;50.944;5.382;2022-12-13T04:47:44;14.65;;;8.25;;
43650;SDS011;29247;50.944;5.382;2022-12-13T04:50:15;12.07;;;6.95;;
43650;SDS011;29247;50.944;5.382;2022-12-13T04:52:41;16.35;;;7.18;;
43650;SDS011;29247;50.944;5.382;2022-12-13T04:57:37;15.73;;;7.40;;
43650;SDS011;29247;50.944;5.382;2022-12-13T05:00:07;16.85;;;8.45;;
43650;SDS011;29247;50.944;5.382;2022-12-13T05:02:35;14.00;;;7.63;;
43650;SDS011;29247;50.944;5.382;2022-12-13T05:05:03;14.75;;;7.63;;
43650;SDS011;29247;50.944;5.382;2022-12-13T05:07:31;19.00;;;8.60;;
43650;SDS011;29247;50.944;5.382;2022-12-13T05:09:57;20.95;;;9.73;;
43650;SDS011;29247;50.944;5.382;2022-12-13T05:12:25;23.75;;;9.20;;
43650;SDS011;29247;50.944;5.382;2022-12-13T05:14:51;22.48;;;9.27;;
43650;SDS011;29247;50.944;5.382;2022-12-13T05:17:17;16.48;;;8.73;;
43650;SDS011;29247;50.944;5.382;2022-12-13T05:19:43;16.60;;;8.30;;
43650;SDS011;29247;50.944;5.382;2022-12-13T05:22:09;17.83;;;8.57;;
43650;SDS011;29247;50.944;5.382;2022-12-13T05:24:41;22.88;;;9.48;;
43650;SDS011;29247;50.944;5.382;2022-12-13T05:27:08;17.95;;;8.85;;
43650;SDS011;29247;50.944;5.382;2022-12-13T05:29:37;20.33;;;9.15;;
43650;SDS011;29247;50.944;5.382;2022-12-13T05:32:03;17.83;;;9.57;;
43650;SDS011;29247;50.944;5.382;2022-12-13T05:34:29;18.30;;;8.95;;
43650;SDS011;29247;50.944;5.382;2022-12-13T05:36:57;20.73;;;9.70;;
43650;SDS011;29247;50.944;5.382;2022-12-13T05:39:25;27.20;;;8.18;;
43650;SDS011;29247;50.944;5.382;2022-12-13T05:41:51;20.90;;;9.98;;
43650;SDS011;29247;50.944;5.382;2022-12-13T05:44:18;17.52;;;7.78;;
43650;SDS011;29247;50.944;5.382;2022-12-13T05:46:44;20.13;;;9.65;;
43650;SDS011;29247;50.944;5.382;2022-12-13T05:49:09;20.15;;;8.25;;
43650;SDS011;29247;50.944;5.382;2022-12-13T05:51:38;21.08;;;8.35;;
43650;SDS011;29247;50.944;5.382;2022-12-13T05:54:03;17.88;;;7.20;;
43650;SDS011;29247;50.944;5.382;2022-12-13T05:56:29;20.48;;;8.93;;
43650;SDS011;29247;50.944;5.382;2022-12-13T05:58:55;25.08;;;10.27;;
43650;SDS011;29247;50.944;5.382;2022-12-13T06:01:24;20.55;;;8.65;;
43650;SDS011;29247;50.944;5.382;2022-12-13T06:03:50;18.20;;;8.43;;
43650;SDS011;29247;50.944;5.382;2022-12-13T06:06:16;23.90;;;9.73;;
43650;SDS011;29247;50.944;5.382;2022-12-13T06:08:42;21.77;;;8.68;;
43650;SDS011;29247;50.944;5.382;2022-12-13T06:11:07;15.88;;;8.52;;
43650;SDS011;29247;50.944;5.382;2022-12-13T06:13:35;18.05;;;8.90;;
43650;SDS011;29247;50.944;5.382;2022-12-13T06:16:01;18.35;;;8.88;;
43650;SDS011;29247;50.944;5.382;2022-12-13T06:18:30;14.73;;;8.27;;
43650;SDS011;29247;50.944;5.382;2022-12-13T06:20:58;18.25;;;8.45;;
43650;SDS011;29247;50.944;5.382;2022-12-13T06:23:25;20.98;;;8.60;;
43650;SDS011;29247;50.944;5.382;2022-12-13T06:25:54;21.63;;;9.60;;
43650;SDS011;29247;50.944;5.382;2022-12-13T06:28:19;15.95;;;7.90;;
43650;SDS011;29247;50.944;5.382;2022-12-13T06:30:45;21.80;;;9.38;;
43650;SDS011;29247;50.944;5.382;2022-12-13T06:33:11;22.83;;;10.02;;
43650;SDS011;29247;50.944;5.382;2022-12-13T06:35:37;18.25;;;8.73;;
43650;SDS011;29247;50.944;5.382;2022-12-13T06:38:03;18.65;;;8.20;;
43650;SDS011;29247;50.944;5.382;2022-12-13T06:40:29;18.13;;;9.68;;
43650;SDS011;29247;50.944;5.382;2022-12-13T06:42:57;19.75;;;9.65;;
43650;SDS011;29247;50.944;5.382;2022-12-13T06:45:23;18.13;;;8.77;;
43650;SDS011;29247;50.944;5.382;2022-12-13T06:47:49;18.20;;;8.57;;
43650;SDS011;29247;50.944;5.382;2022-12-13T06:50:15;15.38;;;8.50;;
43650;SDS011;29247;50.944;5.382;2022-12-13T06:52:46;23.35;;;10.23;;
43650;SDS011;29247;50.944;5.382;2022-12-13T06:55:12;21.52;;;10.40;;
43650;SDS011;29247;50.944;5.382;2022-12-13T06:57:38;27.90;;;11.00;;
43650;SDS011;29247;50.944;5.382;2022-12-13T07:00:06;19.48;;;9.57;;
43650;SDS011;29247;50.944;5.382;2022-12-13T07:02:33;22.65;;;9.80;;
43650;SDS011;29247;50.944;5.382;2022-12-13T07:04:59;23.90;;;10.38;;
43650;SDS011;29247;50.944;5.382;2022-12-13T07:07:24;21.63;;;9.98;;
43650;SDS011;29247;50.944;5.382;2022-12-13T07:09:50;23.27;;;9.63;;
43650;SDS011;29247;50.944;5.382;2022-12-13T07:12:17;25.02;;;10.43;;
43650;SDS011;29247;50.944;5.382;2022-12-13T07:14:44;17.83;;;8.55;;
43650;SDS011;29247;50.944;5.382;2022-12-13T07:17:13;17.38;;;9.38;;
43650;SDS011;29247;50.944;5.382;2022-12-13T07:19:42;18.45;;;9.88;;
43650;SDS011;29247;50.944;5.382;2022-12-13T07:22:10;21.80;;;10.52;;
43650;SDS011;29247;50.944;5.382;2022-12-13T07:24:36;20.20;;;9.20;;
43650;SDS011;29247;50.944;5.382;2022-12-13T07:27:04;21.63;;;9.55;;
43650;SDS011;29247;50.944;5.382;2022-12-13T07:29:30;18.15;;;8.90;;
43650;SDS011;29247;50.944;5.382;2022-12-13T07:31:58;20.77;;;10.05;;
43650;SDS011;29247;50.944;5.382;2022-12-13T07:34:26;21.83;;;9.55;;
43650;SDS011;29247;50.944;5.382;2022-12-13T07:36:52;16.95;;;8.30;;
43650;SDS011;29247;50.944;5.382;2022-12-13T07:39:22;22.25;;;9.68;;
43650;SDS011;29247;50.944;5.382;2022-12-13T07:44:20;21.20;;;9.13;;
43650;SDS011;29247;50.944;5.382;2022-12-13T07:46:47;20.88;;;9.75;;
43650;SDS011;29247;50.944;5.382;2022-12-13T07:49:16;23.55;;;9.82;;
43650;SDS011;29247;50.944;5.382;2022-12-13T07:51:42;25.08;;;10.27;;
43650;SDS011;29247;50.944;5.382;2022-12-13T07:54:08;19.77;;;9.85;;
43650;SDS011;29247;50.944;5.382;2022-12-13T07:56:36;21.70;;;10.38;;
43650;SDS011;29247;50.944;5.382;2022-12-13T07:59:01;22.08;;;9.65;;
43650;SDS011;29247;50.944;5.382;2022-12-13T08:01:27;21.33;;;9.82;;
43650;SDS011;29247;50.944;5.382;2022-12-13T08:04:01;21.73;;;10.57;;
43650;SDS011;29247;50.944;5.382;2022-12-13T08:06:31;25.90;;;11.68;;
43650;SDS011;29247;50.944;5.382;2022-12-13T08:08:59;21.95;;;9.55;;
43650;SDS011;29247;50.944;5.382;2022-12-13T08:11:25;27.05;;;11.38;;
43650;SDS011;29247;50.944;5.382;2022-12-13T08:13:56;25.20;;;11.73;;
43650;SDS011;29247;50.944;5.382;2022-12-13T08:16:21;25.38;;;10.57;;
43650;SDS011;29247;50.944;5.382;2022-12-13T08:18:48;25.48;;;10.82;;
43650;SDS011;29247;50.944;5.382;2022-12-13T08:21:16;26.40;;;10.90;;
43650;SDS011;29247;50.944;5.382;2022-12-13T08:23:42;30.10;;;10.98;;
43650;SDS011;29247;50.944;5.382;2022-12-13T08:26:08;26.55;;;12.30;;
43650;SDS011;29247;50.944;5.382;2022-12-13T08:28:39;34.08;;;12.23;;
43650;SDS011;29247;50.944;5.382;2022-12-13T08:31:06;23.98;;;10.90;;
43650;SDS011;29247;50.944;5.382;2022-12-13T08:33:35;32.05;;;12.88;;
43650;SDS011;29247;50.944;5.382;2022-12-13T08:36:10;25.92;;;11.80;;
43650;SDS011;29247;50.944;5.382;2022-12-13T08:38:42;29.73;;;12.98;;
43650;SDS011;29247;50.944;5.382;2022-12-13T08:41:08;31.27;;;12.25;;
43650;SDS011;29247;50.944;5.382;2022-12-13T08:43:35;33.55;;;13.48;;
43650;SDS011;29247;50.944;5.382;2022-12-13T08:46:01;33.03;;;13.25;;
43650;SDS011;29247;50.944;5.382;2022-12-13T08:48:30;32.83;;;13.95;;
43650;SDS011;29247;50.944;5.382;2022-12-13T08:50:59;38.95;;;13.85;;
43650;SDS011;29247;50.944;5.382;2022-12-13T08:53:26;31.92;;;13.20;;
43650;SDS011;29247;50.944;5.382;2022-12-13T08:55:54;30.05;;;13.05;;
43650;SDS011;29247;50.944;5.382;2022-12-13T08:58:25;36.03;;;12.80;;
43650;SDS011;29247;50.944;5.382;2022-12-13T09:00:54;34.28;;;13.85;;
43650;SDS011;29247;50.944;5.382;2022-12-13T09:03:20;31.48;;;13.20;;
43650;SDS011;29247;50.944;5.382;2022-12-13T09:05:46;30.75;;;12.73;;
43650;SDS011;29247;50.944;5.382;2022-12-13T09:08:13;33.88;;;12.15;;
43650;SDS011;29247;50.944;5.382;2022-12-13T09:10:39;33.33;;;13.95;;
43650;SDS011;29247;50.944;5.382;2022-12-13T09:13:05;31.65;;;14.18;;
43650;SDS011;29247;50.944;5.382;2022-12-13T09:15:31;31.00;;;13.68;;
43650;SDS011;29247;50.944;5.382;2022-12-13T09:17:59;30.13;;;13.25;;
43650;SDS011;29247;50.944;5.382;2022-12-13T09:20:27;37.25;;;14.88;;
43650;SDS011;29247;50.944;5.382;2022-12-13T09:22:55;34.65;;;13.68;;
43650;SDS011;29247;50.944;5.382;2022-12-13T09:25:21;36.05;;;14.27;;
43650;SDS011;29247;50.944;5.382;2022-12-13T09:27:47;44.38;;;15.95;;
43650;SDS011;29247;50.944;5.382;2022-12-13T09:30:15;37.65;;;14.48;;
43650;SDS011;29247;50.944;5.382;2022-12-13T09:32:41;38.03;;;15.63;;
43650;SDS011;29247;50.944;5.382;2022-12-13T09:35:13;40.53;;;15.35;;
43650;SDS011;29247;50.944;5.382;2022-12-13T09:37:39;39.85;;;15.18;;
43650;SDS011;29247;50.944;5.382;2022-12-13T09:40:05;35.58;;;14.95;;
43650;SDS011;29247;50.944;5.382;2022-12-13T09:42:31;37.30;;;15.63;;
43650;SDS011;29247;50.944;5.382;2022-12-13T09:44:59;41.08;;;14.70;;
43650;SDS011;29247;50.944;5.382;2022-12-13T09:47:29;34.72;;;13.88;;
43650;SDS011;29247;50.944;5.382;2022-12-13T09:50:01;37.55;;;15.20;;
43650;SDS011;29247;50.944;5.382;2022-12-13T09:52:35;32.28;;;14.20;;
43650;SDS011;29247;50.944;5.382;2022-12-13T09:58:10;36.30;;;16.27;;
43650;SDS011;29247;50.944;5.382;2022-12-13T10:00:42;38.80;;;16.73;;
43650;SDS011;29247;50.944;5.382;2022-12-13T10:03:15;35.08;;;13.45;;
43650;SDS011;29247;50.944;5.382;2022-12-13T10:05:45;40.65;;;14.52;;
43650;SDS011;29247;50.944;5.382;2022-12-13T10:08:34;38.30;;;14.65;;
43650;SDS011;29247;50.944;5.382;2022-12-13T10:11:12;32.35;;;14.05;;
43650;SDS011;29247;50.944;5.382;2022-12-13T10:13:45;39.35;;;14.18;;
43650;SDS011;29247;50.944;5.382;2022-12-13T10:18:54;41.08;;;16.77;;
43650;SDS011;29247;50.944;5.382;2022-12-13T10:21:25;37.22;;;15.38;;
43650;SDS011;29247;50.944;5.382;2022-12-13T10:23:55;35.30;;;14.05;;
43650;SDS011;29247;50.944;5.382;2022-12-13T10:26:36;31.20;;;13.70;;
43650;SDS011;29247;50.944;5.382;2022-12-13T10:29:03;43.60;;;15.75;;
43650;SDS011;29247;50.944;5.382;2022-12-13T10:31:37;37.67;;;15.52;;
43650;SDS011;29247;50.944;5.382;2022-12-13T10:34:13;39.70;;;14.80;;
43650;SDS011;29247;50.944;5.382;2022-12-13T10:36:55;34.08;;;14.57;;
43650;SDS011;29247;50.944;5.382;2022-12-13T10:39:42;35.42;;;14.38;;
43650;SDS011;29247;50.944;5.382;2022-12-13T10:42:26;36.97;;;14.75;;
43650;SDS011;29247;50.944;5.382;2022-12-13T10:45:13;38.78;;;15.95;;
43650;SDS011;29247;50.944;5.382;2022-12-13T10:47:41;39.33;;;16.60;;
43650;SDS011;29247;50.944;5.382;2022-12-13T10:50:08;35.33;;;14.50;;
43650;SDS011;29247;50.944;5.382;2022-12-13T10:52:52;39.20;;;14.50;;
43650;SDS011;29247;50.944;5.382;2022-12-13T10:55:29;41.20;;;14.73;;
43650;SDS011;29247;50.944;5.382;2022-12-13T10:58:03;44.63;;;16.05;;
43650;SDS011;29247;50.944;5.382;2022-12-13T11:03:10;51.50;;;17.13;;
43650;SDS011;29247;50.944;5.382;2022-12-13T11:08:31;41.08;;;15.55;;
43650;SDS011;29247;50.944;5.382;2022-12-13T11:11:00;32.17;;;12.93;;
43650;SDS011;29247;50.944;5.382;2022-12-13T11:13:30;33.00;;;13.68;;
43650;SDS011;29247;50.944;5.382;2022-12-13T11:18:51;43.00;;;15.90;;
43650;SDS011;29247;50.944;5.382;2022-12-13T11:21:23;34.25;;;15.23;;
43650;SDS011;29247;50.944;5.382;2022-12-13T11:23:57;36.72;;;14.80;;
43650;SDS011;29247;50.944;5.382;2022-12-13T11:26:28;38.65;;;15.68;;
43650;SDS011;29247;50.944;5.382;2022-12-13T11:39:38;38.80;;;15.63;;
43650;SDS011;29247;50.944;5.382;2022-12-13T11:47:30;36.80;;;15.38;;
43650;SDS011;29247;50.944;5.382;2022-12-13T11:50:16;39.83;;;15.27;;
43650;SDS011;29247;50.944;5.382;2022-12-13T11:52:51;34.35;;;13.57;;
43650;SDS011;29247;50.944;5.382;2022-12-13T11:58:00;37.75;;;14.30;;
43650;SDS011;29247;50.944;5.382;2022-12-13T12:00:44;32.70;;;13.48;;
43650;SDS011;29247;50.944;5.382;2022-12-13T12:05:42;33.38;;;14.15;;
43650;SDS011;29247;50.944;5.382;2022-12-13T12:11:37;31.70;;;12.73;;
43650;SDS011;29247;50.944;5.382;2022-12-13T12:14:32;28.05;;;13.80;;
43650;SDS011;29247;50.944;5.382;2022-12-13T12:16:56;34.03;;;14.20;;
43650;SDS011;29247;50.944;5.382;2022-12-13T12:19:25;29.90;;;12.15;;
43650;SDS011;29247;50.944;5.382;2022-12-13T12:34:51;31.42;;;13.23;;
43650;SDS011;29247;50.944;5.382;2022-12-13T12:41:10;34.47;;;14.45;;
43650;SDS011;29247;50.944;5.382;2022-12-13T12:43:55;33.88;;;13.75;;
43650;SDS011;29247;50.944;5.382;2022-12-13T12:52:12;35.70;;;14.52;;
43650;SDS011;29247;50.944;5.382;2022-12-13T12:54:47;34.90;;;14.48;;
43650;SDS011;29247;50.944;5.382;2022-12-13T13:00:17;32.88;;;13.55;;
43650;SDS011;29247;50.944;5.382;2022-12-13T13:08:28;34.03;;;13.80;;
43650;SDS011;29247;50.944;5.382;2022-12-13T13:11:15;33.15;;;12.60;;
43650;SDS011;29247;50.944;5.382;2022-12-13T13:13:59;35.95;;;13.68;;
43650;SDS011;29247;50.944;5.382;2022-12-13T13:21:45;28.05;;;11.50;;
43650;SDS011;29247;50.944;5.382;2022-12-13T13:24:13;33.03;;;13.35;;
43650;SDS011;29247;50.944;5.382;2022-12-13T13:26:45;38.80;;;12.70;;
43650;SDS011;29247;50.944;5.382;2022-12-13T13:32:02;35.67;;;12.73;;
43650;SDS011;29247;50.944;5.382;2022-12-13T13:34:41;32.22;;;12.07;;
43650;SDS011;29247;50.944;5.382;2022-12-13T13:42:30;28.83;;;13.57;;
43650;SDS011;29247;50.944;5.382;2022-12-13T13:45:18;23.17;;;9.45;;
43650;SDS011;29247;50.944;5.382;2022-12-13T13:47:54;31.50;;;12.55;;
43650;SDS011;29247;50.944;5.382;2022-12-13T14:07:52;32.38;;;12.85;;
43650;SDS011;29247;50.944;5.382;2022-12-13T14:22:19;26.65;;;11.70;;
43650;SDS011;29247;50.944;5.382;2022-12-13T14:27:52;30.42;;;11.60;;
43650;SDS011;29247;50.944;5.382;2022-12-13T14:30:35;29.63;;;12.00;;
43650;SDS011;29247;50.944;5.382;2022-12-13T14:33:18;35.38;;;13.23;;
43650;SDS011;29247;50.944;5.382;2022-12-13T14:35:53;31.92;;;13.13;;
43650;SDS011;29247;50.944;5.382;2022-12-13T14:38:24;23.92;;;11.75;;
43650;SDS011;29247;50.944;5.382;2022-12-13T14:41:01;30.50;;;12.25;;
43650;SDS011;29247;50.944;5.382;2022-12-13T14:43:31;30.88;;;12.57;;
43650;SDS011;29247;50.944;5.382;2022-12-13T14:46:03;28.55;;;11.57;;
43650;SDS011;29247;50.944;5.382;2022-12-13T14:48:36;28.83;;;11.80;;
43650;SDS011;29247;50.944;5.382;2022-12-13T14:51:32;26.17;;;11.52;;
43650;SDS011;29247;50.944;5.382;2022-12-13T14:53:59;26.67;;;11.15;;
43650;SDS011;29247;50.944;5.382;2022-12-13T14:56:29;26.73;;;11.43;;
43650;SDS011;29247;50.944;5.382;2022-12-13T14:59:01;31.25;;;12.63;;
43650;SDS011;29247;50.944;5.382;2022-12-13T15:01:30;25.02;;;10.95;;
43650;SDS011;29247;50.944;5.382;2022-12-13T15:06:45;30.48;;;12.05;;
43650;SDS011;29247;50.944;5.382;2022-12-13T15:09:15;27.45;;;12.48;;
43650;SDS011;29247;50.944;5.382;2022-12-13T15:11:43;28.75;;;12.27;;
43650;SDS011;29247;50.944;5.382;2022-12-13T15:14:15;19.52;;;10.27;;
43650;SDS011;29247;50.944;5.382;2022-12-13T15:16:54;28.23;;;12.35;;
43650;SDS011;29247;50.944;5.382;2022-12-13T15:19:23;28.00;;;11.48;;
43650;SDS011;29247;50.944;5.382;2022-12-13T15:21:58;31.48;;;12.43;;
43650;SDS011;29247;50.944;5.382;2022-12-13T15:24:28;27.83;;;11.98;;
43650;SDS011;29247;50.944;5.382;2022-12-13T15:26:57;31.88;;;11.75;;
43650;SDS011;29247;50.944;5.382;2022-12-13T15:29:25;25.67;;;11.20;;
43650;SDS011;29247;50.944;5.382;2022-12-13T15:31:54;28.10;;;12.13;;
43650;SDS011;29247;50.944;5.382;2022-12-13T15:36:52;26.85;;;10.65;;
43650;SDS011;29247;50.944;5.382;2022-12-13T15:39:22;24.20;;;11.48;;
43650;SDS011;29247;50.944;5.382;2022-12-13T15:41:49;26.30;;;10.40;;
43650;SDS011;29247;50.944;5.382;2022-12-13T15:46:47;27.58;;;11.63;;
43650;SDS011;29247;50.944;5.382;2022-12-13T15:49:24;26.58;;;11.18;;
43650;SDS011;29247;50.944;5.382;2022-12-13T15:52:05;30.45;;;12.40;;
43650;SDS011;29247;50.944;5.382;2022-12-13T15:54:55;22.40;;;9.88;;
43650;SDS011;29247;50.944;5.382;2022-12-13T15:57:26;23.60;;;10.13;;
43650;SDS011;29247;50.944;5.382;2022-12-13T16:00:04;23.92;;;10.98;;
43650;SDS011;29247;50.944;5.382;2022-12-13T16:02:31;22.48;;;9.52;;
43650;SDS011;29247;50.944;5.382;2022-12-13T16:05:46;23.13;;;11.70;;
43650;SDS011;29247;50.944;5.382;2022-12-13T16:07:51;24.98;;;10.85;;
43650;SDS011;29247;50.944;5.382;2022-12-13T16:10:18;28.45;;;11.65;;
43650;SDS011;29247;50.944;5.382;2022-12-13T16:12:49;21.63;;;10.10;;
43650;SDS011;29247;50.944;5.382;2022-12-13T16:15:24;27.60;;;12.65;;
43650;SDS011;29247;50.944;5.382;2022-12-13T16:17:54;26.05;;;11.55;;
43650;SDS011;29247;50.944;5.382;2022-12-13T16:20:33;28.02;;;11.48;;
43650;SDS011;29247;50.944;5.382;2022-12-13T16:22:59;26.08;;;11.05;;
43650;SDS011;29247;50.944;5.382;2022-12-13T16:25:28;27.15;;;10.57;;
43650;SDS011;29247;50.944;5.382;2022-12-13T16:27:54;24.35;;;10.98;;
43650;SDS011;29247;50.944;5.382;2022-12-13T16:30:25;30.10;;;11.95;;
43650;SDS011;29247;50.944;5.382;2022-12-13T16:33:11;25.20;;;11.27;;
43650;SDS011;29247;50.944;5.382;2022-12-13T16:35:37;30.45;;;11.15;;
43650;SDS011;29247;50.944;5.382;2022-12-13T16:38:07;24.20;;;11.82;;
43650;SDS011;29247;50.944;5.382;2022-12-13T16:40:34;23.85;;;10.00;;
43650;SDS011;29247;50.944;5.382;2022-12-13T16:43:03;23.60;;;10.65;;
43650;SDS011;29247;50.944;5.382;2022-12-13T16:45:41;23.30;;;10.02;;
43650;SDS011;29247;50.944;5.382;2022-12-13T16:48:14;20.98;;;10.07;;
43650;SDS011;29247;50.944;5.382;2022-12-13T16:50:41;22.85;;;8.88;;
43650;SDS011;29247;50.944;5.382;2022-12-13T16:53:10;20.77;;;9.77;;
43650;SDS011;29247;50.944;5.382;2022-12-13T16:55:39;21.13;;;9.23;;
43650;SDS011;29247;50.944;5.382;2022-12-13T16:58:08;23.75;;;9.57;;
43650;SDS011;29247;50.944;5.382;2022-12-13T17:00:36;20.33;;;10.52;;
43650;SDS011;29247;50.944;5.382;2022-12-13T17:03:05;18.15;;;8.55;;
43650;SDS011;29247;50.944;5.382;2022-12-13T17:05:34;24.02;;;10.18;;
43650;SDS011;29247;50.944;5.382;2022-12-13T17:08:00;23.60;;;9.52;;
43650;SDS011;29247;50.944;5.382;2022-12-13T17:10:26;20.95;;;9.80;;
43650;SDS011;29247;50.944;5.382;2022-12-13T17:12:53;23.42;;;9.38;;
43650;SDS011;29247;50.944;5.382;2022-12-13T17:15:19;23.73;;;9.00;;
43650;SDS011;29247;50.944;5.382;2022-12-13T17:17:45;20.27;;;8.65;;
43650;SDS011;29247;50.944;5.382;2022-12-13T17:20:12;26.90;;;9.82;;